sensor_id;sensor_type;location;lat;lon;timestamp;P1;durP1;ratioP1;P2;durP2;ratioP2
16430;SDS011;8325;49.284;7.238;2023-02-08T05:04:41;10.77;;;6.33;;
16430;SDS011;8325;49.284;7.238;2023-02-08T05:08:53;10.60;;;5.67;;
16430;SDS011;8325;49.284;7.238;2023-02-08T05:13:04;10.80;;;5.60;;
16430;SDS011;8325;49.284;7.238;2023-02-08T05:17:16;11.00;;;5.80;;
16430;SDS011;8325;49.284;7.238;2023-02-08T05:21:27;10.00;;;5.90;;
16430;SDS011;8325;49.284;7.238;2023-02-08T05:25:39;10.73;;;5.67;;
16430;SDS011;8325;49.284;7.238;2023-02-08T05:29:52;9.67;;;5.50;;
16430;SDS011;8325;49.284;7.238;2023-02-08T05:34:03;11.20;;;5.63;;
16430;SDS011;8325;49.284;7.238;2023-02-08T05:38:15;9.83;;;5.67;;
16430;SDS011;8325;49.284;7.238;2023-02-08T05:42:26;10.07;;;6.33;;
16430;SDS011;8325;49.284;7.238;2023-02-08T05:46:38;11.00;;;6.60;;
16430;SDS011;8325;49.284;7.238;2023-02-08T05:50:49;11.03;;;5.97;;
16430;SDS011;8325;49.284;7.238;2023-02-08T05:55:01;9.37;;;5.77;;
16430;SDS011;8325;49.284;7.238;2023-02-08T05:59:12;10.67;;;6.20;;
16430;SDS011;8325;49.284;7.238;2023-02-08T06:03:24;9.47;;;6.17;;
16430;SDS011;8325;49.284;7.238;2023-02-08T06:07:35;9.67;;;5.63;;
16430;SDS011;8325;49.284;7.238;2023-02-08T06:11:47;9.83;;;5.67;;
16430;SDS011;8325;49.284;7.238;2023-02-08T06:15:58;8.87;;;6.10;;
16430;SDS011;8325;49.284;7.238;2023-02-08T06:20:10;10.93;;;6.03;;
16430;SDS011;8325;49.284;7.238;2023-02-08T06:24:22;9.33;;;6.07;;
16430;SDS011;8325;49.284;7.238;2023-02-08T06:28:35;13.83;;;5.93;;
16430;SDS011;8325;49.284;7.238;2023-02-08T06:32:47;10.73;;;6.00;;
16430;SDS011;8325;49.284;7.238;2023-02-08T06:36:59;10.37;;;5.90;;
16430;SDS011;8325;49.284;7.238;2023-02-08T06:41:12;12.20;;;6.40;;
16430;SDS011;8325;49.284;7.238;2023-02-08T06:45:23;9.23;;;5.57;;
16430;SDS011;8325;49.284;7.238;2023-02-08T06:49:35;10.70;;;5.73;;
16430;SDS011;8325;49.284;7.238;2023-02-08T06:53:46;7.33;;;5.53;;
16430;SDS011;8325;49.284;7.238;2023-02-08T06:57:58;13.70;;;7.13;;
16430;SDS011;8325;49.284;7.238;2023-02-08T07:02:11;8.60;;;5.67;;
16430;SDS011;8325;49.284;7.238;2023-02-08T07:06:24;11.37;;;5.60;;
16430;SDS011;8325;49.284;7.238;2023-02-08T07:10:37;7.93;;;5.37;;
16430;SDS011;8325;49.284;7.238;2023-02-08T07:14:50;10.83;;;5.83;;
16430;SDS011;8325;49.284;7.238;2023-02-08T07:19:02;9.73;;;5.90;;
16430;SDS011;8325;49.284;7.238;2023-02-08T07:23:14;11.60;;;6.20;;
16430;SDS011;8325;49.284;7.238;2023-02-08T07:27:25;10.30;;;6.00;;
16430;SDS011;8325;49.284;7.238;2023-02-08T07:31:37;9.50;;;5.90;;
16430;SDS011;8325;49.284;7.238;2023-02-08T07:35:49;9.77;;;5.43;;
16430;SDS011;8325;49.284;7.238;2023-02-08T07:40:01;9.30;;;5.67;;
16430;SDS011;8325;49.284;7.238;2023-02-08T07:44:12;11.23;;;6.03;;
16430;SDS011;8325;49.284;7.238;2023-02-08T07:48:24;12.37;;;5.90;;
16430;SDS011;8325;49.284;7.238;2023-02-08T07:52:35;10.97;;;5.93;;
16430;SDS011;8325;49.284;7.238;2023-02-08T07:56:47;11.13;;;5.67;;
16430;SDS011;8325;49.284;7.238;2023-02-08T08:00:59;9.83;;;5.73;;
16430;SDS011;8325;49.284;7.238;2023-02-08T08:05:22;11.47;;;6.00;;
16430;SDS011;8325;49.284;7.238;2023-02-08T08:09:34;12.87;;;6.33;;
16430;SDS011;8325;49.284;7.238;2023-02-08T08:13:45;9.60;;;5.97;;
16430;SDS011;8325;49.284;7.238;2023-02-08T08:17:57;9.33;;;5.73;;
16430;SDS011;8325;49.284;7.238;2023-02-08T08:22:08;8.83;;;5.80;;
16430;SDS011;8325;49.284;7.238;2023-02-08T08:26:20;9.17;;;5.83;;
16430;SDS011;8325;49.284;7.238;2023-02-08T08:30:32;10.60;;;6.40;;
16430;SDS011;8325;49.284;7.238;2023-02-08T08:34:44;11.70;;;5.97;;
16430;SDS011;8325;49.284;7.238;2023-02-08T08:38:55;10.53;;;6.00;;
16430;SDS011;8325;49.284;7.238;2023-02-08T08:43:07;9.90;;;6.27;;
16430;SDS011;8325;49.284;7.238;2023-02-08T08:47:19;10.30;;;6.10;;
16430;SDS011;8325;49.284;7.238;2023-02-08T08:51:31;10.93;;;5.97;;
16430;SDS011;8325;49.284;7.238;2023-02-08T08:55:45;8.80;;;5.63;;
16430;SDS011;8325;49.284;7.238;2023-02-08T08:59:57;9.50;;;6.00;;
16430;SDS011;8325;49.284;7.238;2023-02-08T09:04:09;10.77;;;6.53;;
16430;SDS011;8325;49.284;7.238;2023-02-08T09:08:21;11.80;;;5.70;;
16430;SDS011;8325;49.284;7.238;2023-02-08T09:12:32;9.57;;;6.30;;
16430;SDS011;8325;49.284;7.238;2023-02-08T09:16:44;11.67;;;6.13;;
16430;SDS011;8325;49.284;7.238;2023-02-08T09:20:58;11.30;;;6.17;;
16430;SDS011;8325;49.284;7.238;2023-02-08T09:25:10;9.97;;;6.23;;
16430;SDS011;8325;49.284;7.238;2023-02-08T09:29:21;12.30;;;6.40;;
16430;SDS011;8325;49.284;7.238;2023-02-08T09:33:33;9.80;;;6.17;;
16430;SDS011;8325;49.284;7.238;2023-02-08T09:37:45;9.73;;;6.50;;
16430;SDS011;8325;49.284;7.238;2023-02-08T09:46:31;11.47;;;6.30;;
16430;SDS011;8325;49.284;7.238;2023-02-08T09:51:07;9.50;;;5.80;;
16430;SDS011;8325;49.284;7.238;2023-02-08T09:55:40;12.70;;;6.97;;
16430;SDS011;8325;49.284;7.238;2023-02-08T09:59:56;11.77;;;6.50;;
16430;SDS011;8325;49.284;7.238;2023-02-08T10:04:24;8.77;;;5.53;;
16430;SDS011;8325;49.284;7.238;2023-02-08T10:08:50;9.27;;;5.97;;
16430;SDS011;8325;49.284;7.238;2023-02-08T10:18:00;10.10;;;6.57;;
16430;SDS011;8325;49.284;7.238;2023-02-08T10:22:44;10.30;;;6.00;;
16430;SDS011;8325;49.284;7.238;2023-02-08T10:27:16;11.90;;;6.40;;
16430;SDS011;8325;49.284;7.238;2023-02-08T10:36:07;9.60;;;6.17;;
16430;SDS011;8325;49.284;7.238;2023-02-08T10:40:29;9.33;;;5.77;;
16430;SDS011;8325;49.284;7.238;2023-02-08T10:54:18;11.37;;;5.30;;
16430;SDS011;8325;49.284;7.238;2023-02-08T10:58:29;7.70;;;5.43;;
16430;SDS011;8325;49.284;7.238;2023-02-08T11:02:42;10.57;;;5.43;;
16430;SDS011;8325;49.284;7.238;2023-02-08T11:06:56;7.43;;;4.67;;
16430;SDS011;8325;49.284;7.238;2023-02-08T11:11:08;8.37;;;5.27;;
16430;SDS011;8325;49.284;7.238;2023-02-08T11:15:22;8.27;;;5.10;;
16430;SDS011;8325;49.284;7.238;2023-02-08T11:19:38;7.50;;;4.13;;
16430;SDS011;8325;49.284;7.238;2023-02-08T11:23:56;5.83;;;3.93;;
16430;SDS011;8325;49.284;7.238;2023-02-08T11:28:29;6.00;;;3.43;;
16430;SDS011;8325;49.284;7.238;2023-02-08T11:32:42;5.47;;;3.40;;
16430;SDS011;8325;49.284;7.238;2023-02-08T11:36:56;6.47;;;3.00;;
16430;SDS011;8325;49.284;7.238;2023-02-08T11:41:14;3.83;;;2.63;;
16430;SDS011;8325;49.284;7.238;2023-02-08T11:45:30;3.53;;;2.30;;
16430;SDS011;8325;49.284;7.238;2023-02-08T11:49:50;5.80;;;3.00;;
16430;SDS011;8325;49.284;7.238;2023-02-08T11:54:04;6.37;;;2.60;;
16430;SDS011;8325;49.284;7.238;2023-02-08T11:58:23;2.83;;;2.10;;
16430;SDS011;8325;49.284;7.238;2023-02-08T12:02:37;3.67;;;2.67;;
16430;SDS011;8325;49.284;7.238;2023-02-08T12:11:19;4.23;;;2.60;;
16430;SDS011;8325;49.284;7.238;2023-02-08T12:20:43;6.50;;;2.87;;
16430;SDS011;8325;49.284;7.238;2023-02-08T12:58:13;6.80;;;3.10;;
16430;SDS011;8325;49.284;7.238;2023-02-08T13:02:37;4.40;;;3.00;;
16430;SDS011;8325;49.284;7.238;2023-02-08T13:07:01;4.43;;;3.30;;
16430;SDS011;8325;49.284;7.238;2023-02-08T13:11:24;4.40;;;3.22;;
16430;SDS011;8325;49.284;7.238;2023-02-08T13:15:44;6.25;;;3.97;;
16430;SDS011;8325;49.284;7.238;2023-02-08T13:24:52;6.63;;;4.20;;
16430;SDS011;8325;49.284;7.238;2023-02-08T13:29:18;6.43;;;4.05;;
16430;SDS011;8325;49.284;7.238;2023-02-08T13:33:33;5.80;;;3.80;;
16430;SDS011;8325;49.284;7.238;2023-02-08T13:38:29;5.82;;;3.92;;
16430;SDS011;8325;49.284;7.238;2023-02-08T13:42:47;8.23;;;3.90;;
16430;SDS011;8325;49.284;7.238;2023-02-08T13:47:04;7.63;;;3.97;;
16430;SDS011;8325;49.284;7.238;2023-02-08T13:55:54;7.70;;;4.20;;
16430;SDS011;8325;49.284;7.238;2023-02-08T14:00:26;5.78;;;4.00;;
16430;SDS011;8325;49.284;7.238;2023-02-08T14:04:42;6.88;;;4.38;;
16430;SDS011;8325;49.284;7.238;2023-02-08T14:09:02;5.73;;;3.90;;
16430;SDS011;8325;49.284;7.238;2023-02-08T14:13:34;8.40;;;4.57;;
16430;SDS011;8325;49.284;7.238;2023-02-08T14:17:52;8.23;;;4.07;;
16430;SDS011;8325;49.284;7.238;2023-02-08T14:26:23;6.20;;;3.80;;
16430;SDS011;8325;49.284;7.238;2023-02-08T14:30:35;7.40;;;4.23;;
16430;SDS011;8325;49.284;7.238;2023-02-08T14:34:49;5.83;;;3.93;;
16430;SDS011;8325;49.284;7.238;2023-02-08T14:39:22;6.83;;;4.27;;
16430;SDS011;8325;49.284;7.238;2023-02-08T14:43:35;5.83;;;4.20;;
16430;SDS011;8325;49.284;7.238;2023-02-08T14:47:52;5.40;;;4.10;;
16430;SDS011;8325;49.284;7.238;2023-02-08T14:52:14;6.57;;;4.07;;
16430;SDS011;8325;49.284;7.238;2023-02-08T14:56:38;5.13;;;3.90;;
16430;SDS011;8325;49.284;7.238;2023-02-08T15:01:01;6.77;;;4.30;;
16430;SDS011;8325;49.284;7.238;2023-02-08T15:05:25;7.40;;;4.57;;
16430;SDS011;8325;49.284;7.238;2023-02-08T15:09:40;9.10;;;4.80;;
16430;SDS011;8325;49.284;7.238;2023-02-08T15:13:54;6.63;;;4.40;;
16430;SDS011;8325;49.284;7.238;2023-02-08T15:18:17;8.27;;;4.73;;
16430;SDS011;8325;49.284;7.238;2023-02-08T15:22:34;6.03;;;4.13;;
16430;SDS011;8325;49.284;7.238;2023-02-08T15:26:51;7.57;;;4.47;;
16430;SDS011;8325;49.284;7.238;2023-02-08T15:31:05;8.03;;;5.00;;
16430;SDS011;8325;49.284;7.238;2023-02-08T15:35:19;5.90;;;4.23;;
16430;SDS011;8325;49.284;7.238;2023-02-08T15:39:35;8.27;;;5.17;;
16430;SDS011;8325;49.284;7.238;2023-02-08T15:43:58;8.20;;;4.83;;
16430;SDS011;8325;49.284;7.238;2023-02-08T15:48:12;9.47;;;5.30;;
16430;SDS011;8325;49.284;7.238;2023-02-08T15:52:28;11.57;;;5.30;;
16430;SDS011;8325;49.284;7.238;2023-02-08T16:01:17;8.17;;;5.40;;
16430;SDS011;8325;49.284;7.238;2023-02-08T16:05:30;9.17;;;5.50;;
16430;SDS011;8325;49.284;7.238;2023-02-08T16:09:44;9.03;;;5.50;;
16430;SDS011;8325;49.284;7.238;2023-02-08T16:13:58;8.90;;;5.33;;
16430;SDS011;8325;49.284;7.238;2023-02-08T16:23:24;10.33;;;6.10;;
16430;SDS011;8325;49.284;7.238;2023-02-08T16:27:38;9.47;;;6.00;;
16430;SDS011;8325;49.284;7.238;2023-02-08T16:32:07;13.80;;;6.80;;
16430;SDS011;8325;49.284;7.238;2023-02-08T16:36:50;9.60;;;5.87;;
16430;SDS011;8325;49.284;7.238;2023-02-08T16:41:02;8.10;;;5.57;;
16430;SDS011;8325;49.284;7.238;2023-02-08T16:45:22;11.17;;;6.23;;
16430;SDS011;8325;49.284;7.238;2023-02-08T16:49:34;12.23;;;6.33;;
16430;SDS011;8325;49.284;7.238;2023-02-08T16:53:46;10.63;;;6.30;;
16430;SDS011;8325;49.284;7.238;2023-02-08T16:57:59;11.80;;;6.33;;
16430;SDS011;8325;49.284;7.238;2023-02-08T17:02:11;10.03;;;6.03;;
16430;SDS011;8325;49.284;7.238;2023-02-08T17:06:27;10.50;;;6.23;;
16430;SDS011;8325;49.284;7.238;2023-02-08T17:10:44;9.73;;;6.47;;
16430;SDS011;8325;49.284;7.238;2023-02-08T17:14:58;9.73;;;6.33;;
16430;SDS011;8325;49.284;7.238;2023-02-08T17:19:13;11.73;;;6.73;;
16430;SDS011;8325;49.284;7.238;2023-02-08T17:23:27;10.90;;;6.70;;
16430;SDS011;8325;49.284;7.238;2023-02-08T17:27:39;10.47;;;6.27;;
16430;SDS011;8325;49.284;7.238;2023-02-08T17:31:50;10.60;;;6.20;;
16430;SDS011;8325;49.284;7.238;2023-02-08T17:36:02;10.40;;;6.40;;
16430;SDS011;8325;49.284;7.238;2023-02-08T17:40:14;10.23;;;6.53;;
16430;SDS011;8325;49.284;7.238;2023-02-08T17:44:27;10.43;;;6.37;;
16430;SDS011;8325;49.284;7.238;2023-02-08T17:48:39;11.80;;;7.33;;
16430;SDS011;8325;49.284;7.238;2023-02-08T17:52:51;12.07;;;7.63;;
16430;SDS011;8325;49.284;7.238;2023-02-08T17:57:02;14.47;;;6.63;;
16430;SDS011;8325;49.284;7.238;2023-02-08T18:01:17;11.20;;;6.60;;
16430;SDS011;8325;49.284;7.238;2023-02-08T18:05:30;10.80;;;7.00;;
16430;SDS011;8325;49.284;7.238;2023-02-08T18:09:42;10.87;;;6.67;;
16430;SDS011;8325;49.284;7.238;2023-02-08T18:13:53;12.97;;;7.80;;
16430;SDS011;8325;49.284;7.238;2023-02-08T18:18:05;12.70;;;7.90;;
16430;SDS011;8325;49.284;7.238;2023-02-08T18:22:17;12.10;;;7.83;;
16430;SDS011;8325;49.284;7.238;2023-02-08T18:26:29;12.00;;;7.80;;
16430;SDS011;8325;49.284;7.238;2023-02-08T18:30:43;13.13;;;7.90;;
16430;SDS011;8325;49.284;7.238;2023-02-08T18:34:55;15.93;;;8.90;;
16430;SDS011;8325;49.284;7.238;2023-02-08T18:39:09;13.27;;;8.57;;
16430;SDS011;8325;49.284;7.238;2023-02-08T18:43:24;16.97;;;10.00;;
16430;SDS011;8325;49.284;7.238;2023-02-08T18:47:37;14.83;;;8.53;;
16430;SDS011;8325;49.284;7.238;2023-02-08T18:51:49;13.20;;;8.20;;
16430;SDS011;8325;49.284;7.238;2023-02-08T18:56:01;13.07;;;8.00;;
16430;SDS011;8325;49.284;7.238;2023-02-08T19:00:14;14.83;;;8.37;;
16430;SDS011;8325;49.284;7.238;2023-02-08T19:04:26;14.83;;;8.27;;
16430;SDS011;8325;49.284;7.238;2023-02-08T19:08:38;14.50;;;8.80;;
16430;SDS011;8325;49.284;7.238;2023-02-08T19:12:51;10.17;;;7.10;;
16430;SDS011;8325;49.284;7.238;2023-02-08T19:17:05;13.40;;;6.97;;
16430;SDS011;8325;49.284;7.238;2023-02-08T19:21:16;12.07;;;7.53;;
16430;SDS011;8325;49.284;7.238;2023-02-08T19:25:28;15.37;;;9.70;;
16430;SDS011;8325;49.284;7.238;2023-02-08T19:29:41;14.57;;;10.10;;
16430;SDS011;8325;49.284;7.238;2023-02-08T19:33:54;13.27;;;8.17;;
16430;SDS011;8325;49.284;7.238;2023-02-08T19:38:08;16.43;;;10.40;;
16430;SDS011;8325;49.284;7.238;2023-02-08T19:42:20;14.53;;;8.50;;
16430;SDS011;8325;49.284;7.238;2023-02-08T19:46:32;12.87;;;8.30;;
16430;SDS011;8325;49.284;7.238;2023-02-08T19:50:52;12.90;;;8.33;;
16430;SDS011;8325;49.284;7.238;2023-02-08T19:55:10;13.83;;;8.53;;
16430;SDS011;8325;49.284;7.238;2023-02-08T19:59:25;15.77;;;9.77;;
16430;SDS011;8325;49.284;7.238;2023-02-08T20:03:38;16.67;;;9.90;;
16430;SDS011;8325;49.284;7.238;2023-02-08T20:07:53;13.53;;;9.00;;
16430;SDS011;8325;49.284;7.238;2023-02-08T20:12:04;17.50;;;9.43;;
16430;SDS011;8325;49.284;7.238;2023-02-08T20:16:16;21.27;;;13.33;;
16430;SDS011;8325;49.284;7.238;2023-02-08T20:20:29;20.07;;;11.73;;
16430;SDS011;8325;49.284;7.238;2023-02-08T20:24:41;15.03;;;8.80;;
16430;SDS011;8325;49.284;7.238;2023-02-08T20:28:54;14.53;;;8.37;;
16430;SDS011;8325;49.284;7.238;2023-02-08T20:33:07;16.03;;;8.87;;
16430;SDS011;8325;49.284;7.238;2023-02-08T20:37:18;12.83;;;8.77;;
16430;SDS011;8325;49.284;7.238;2023-02-08T20:41:31;13.57;;;8.80;;
16430;SDS011;8325;49.284;7.238;2023-02-08T20:45:44;15.07;;;9.60;;
16430;SDS011;8325;49.284;7.238;2023-02-08T20:49:56;18.50;;;11.50;;
16430;SDS011;8325;49.284;7.238;2023-02-08T20:54:09;20.93;;;12.10;;
16430;SDS011;8325;49.284;7.238;2023-02-08T20:58:21;24.80;;;14.07;;
16430;SDS011;8325;49.284;7.238;2023-02-08T21:02:33;14.47;;;8.83;;
16430;SDS011;8325;49.284;7.238;2023-02-08T21:06:44;15.10;;;9.73;;
16430;SDS011;8325;49.284;7.238;2023-02-08T21:10:59;19.10;;;10.23;;
16430;SDS011;8325;49.284;7.238;2023-02-08T21:15:11;25.77;;;11.00;;
16430;SDS011;8325;49.284;7.238;2023-02-08T21:19:27;21.70;;;11.60;;
16430;SDS011;8325;49.284;7.238;2023-02-08T21:23:40;21.07;;;11.43;;
16430;SDS011;8325;49.284;7.238;2023-02-08T21:27:52;23.80;;;12.07;;
16430;SDS011;8325;49.284;7.238;2023-02-08T21:32:04;18.10;;;8.30;;
16430;SDS011;8325;49.284;7.238;2023-02-08T21:36:17;15.33;;;8.33;;
16430;SDS011;8325;49.284;7.238;2023-02-08T21:40:31;14.53;;;8.50;;
16430;SDS011;8325;49.284;7.238;2023-02-08T21:44:43;14.73;;;7.77;;
16430;SDS011;8325;49.284;7.238;2023-02-08T21:48:55;15.30;;;8.50;;
16430;SDS011;8325;49.284;7.238;2023-02-08T21:53:26;18.97;;;10.37;;
16430;SDS011;8325;49.284;7.238;2023-02-08T21:57:56;13.13;;;8.27;;
16430;SDS011;8325;49.284;7.238;2023-02-08T22:02:15;26.47;;;13.63;;
16430;SDS011;8325;49.284;7.238;2023-02-08T22:06:41;18.63;;;9.97;;
16430;SDS011;8325;49.284;7.238;2023-02-08T22:11:49;17.03;;;9.10;;
16430;SDS011;8325;49.284;7.238;2023-02-08T22:16:05;16.17;;;9.47;;
16430;SDS011;8325;49.284;7.238;2023-02-08T22:20:21;19.00;;;8.93;;
16430;SDS011;8325;49.284;7.238;2023-02-08T22:24:34;21.43;;;10.40;;
16430;SDS011;8325;49.284;7.238;2023-02-08T22:28:46;19.27;;;10.07;;
